Flight Track Log - Related Links

Times and Time Zones

All times are in EDT time to prevent confusion due to time zone crossing. See the KAP82 flight status page for this flight to view local times or setup timezone preferences in your user account.

Time Position Orientation Groundspeed Altitude Reporting Facility
EDT Latitude Longitude Course Direction KTS MPH feet Rate Location/Type
Wed 09:22:20 AM 42.3833 -71.0000 270° West 112 129 500  Level KA90
Wed 09:22:51 AM 42.3833 -71.0167 270° West 111 128 800 706 Climbing KA90
Wed 09:23:45 AM 42.3833 -71.0667 270° West 118 136 1,500 706 Climbing KA90
Wed 09:24:50 AM 42.3833 -71.1000 270° West 119 137 2,200 600 Climbing KA90
Wed 09:25:45 AM 42.3833 -71.1500 270° West 124 143 2,700 574 Climbing KA90
Wed 09:26:45 AM 42.3667 -71.2000 246° West 131 151 3,300 550 Climbing KA90
Wed 09:27:45 AM 42.3667 -71.2333 270° West 131 151 3,800 500 Climbing KA90
Wed 09:28:45 AM 42.3500 -71.2833 246° West 140 161 4,300 526 Climbing KA90
Wed 09:29:39 AM 42.3500 -71.3333 270° West 141 162 4,800 526 Climbing KA90
Wed 09:30:39 AM 42.3333 -71.3833 246° West 137 158 5,300 476 Climbing KA90
Wed 09:31:45 AM 42.3333 -71.4500 270° West 141 162 5,800 480 Climbing KA90
Wed 09:32:19 AM 42.3192 -71.4769 235° Southwest 140 161 6,100 528 Climbing Boston Center
Wed 09:33:50 AM 42.3072 -71.5531 258° West 139 160 6,900 474 Climbing Boston Center
Wed 09:34:51 AM 42.2972 -71.6092 256° West 142 163 7,300 417 Climbing Boston Center
Wed 09:35:45 AM 42.2914 -71.6542 260° West 147 169 7,700 417 Climbing Boston Center
Wed 09:36:46 AM 42.2814 -71.7133 257° West 151 174 8,100 198 Climbing Boston Center
Wed 09:37:46 AM 42.2692 -71.7722 254° West 166 191 8,100  Level Boston Center
Wed 09:38:49 AM 42.2633 -71.8314 262° West 162 186 8,100  Level Boston Center
Wed 09:39:50 AM 42.2658 -71.8931 273° West 163 188 8,100  Level Boston Center
Wed 09:41:02 AM 42.2681 -71.9658 272° West 161 185 8,100  Level Boston Center
Wed 09:41:51 AM 42.2703 -72.0164 273° West 162 186 8,100  Level Boston Center
Wed 09:42:52 AM 42.2706 -72.0781 270° West 161 185 8,100  Level Boston Center
Wed 09:43:53 AM 42.2728 -72.1369 273° West 161 185 8,100  Level Boston Center
Wed 09:45:12 AM 42.2750 -72.2156 272° West 160 184 8,100  Level Boston Center
Wed 09:45:54 AM 42.2878 -72.2578 292° West 161 185 8,100  Level Boston Center
Wed 09:47:07 AM 42.3108 -72.3222 296° West 161 185 8,100  Level Boston Center
Wed 09:48:08 AM 42.3275 -72.3783 292° West 161 185 8,100  Level Boston Center
Wed 09:48:56 AM 42.3400 -72.4233 291° West 162 186 8,100 -59 Level Boston Center
Wed 09:49:50 AM 42.3567 -72.4739 294° West 158 182 8,000  Descending Boston Center
Wed 09:50:57 AM 42.3733 -72.5356 290° West 159 183 8,100  Climbing Boston Center
Wed 09:51:53 AM 42.3878 -72.5833 292° West 158 182 8,000  Descending Boston Center
Wed 09:52:59 AM 42.4086 -72.6481 294° West 158 182 8,100 47 Climbing Boston Center
Wed 09:54:00 AM 42.4250 -72.7017 293° West 158 182 8,100 -51 Level Boston Center
Wed 09:54:57 AM 42.4394 -72.7553 290° West 156 180 8,000  Descending Boston Center
Wed 09:56:22 AM 42.4644 -72.8314 294° West 155 178 8,100  Climbing Boston Center
Wed 09:57:22 AM 42.4786 -72.8878 289° West 155 178 8,000 -50 Descending Boston Center
Wed 09:58:22 AM 42.4953 -72.9386 294° West 155 178 8,000  Level Boston Center
Wed 09:59:23 AM 42.5117 -72.9922 293° West 156 180 8,000  Level Boston Center
Wed 10:00:24 AM 42.5281 -73.0486 292° West 158 182 8,000  Level Boston Center
Wed 10:01:24 AM 42.5381 -73.1078 283° West 159 183 8,000 -197 Level Boston Center
Wed 10:02:26 AM 42.5419 -73.1700 275° West 176 203 7,600 -393 Descending Boston Center
Wed 10:03:26 AM 42.5414 -73.2403 269° West 174 200 7,200 -347 Descending Boston Center
Wed 10:04:27 AM 42.5431 -73.3053 272° West 174 200 6,900 -295 Descending Boston Center
Wed 10:05:28 AM 42.5486 -73.3700 277° West 170 196 6,600 -446 Descending Boston Center
Wed 10:06:28 AM 42.5481 -73.4378 269° West 176 203 6,000 -590 Descending Boston Center
Wed 10:07:30 AM 42.5517 -73.5025 274° West 180 207 5,400 -492 Descending Boston Center
Wed 10:08:30 AM 42.5511 -73.5731 269° West 179 206 5,000 -450 Descending Boston Center
Wed 10:09:30 AM 42.5422 -73.6319 258° West 174 200 4,500 -545 Descending Boston Center
Wed 10:10:31 AM 42.5414 -73.6997 269° West 186 214 3,900 -639 Descending Boston Center
Wed 10:11:32 AM 42.5636 -73.7678 294° West 180 207 3,200 -496 Descending Boston Center
Wed 10:12:32 AM 42.5903 -73.8022 316° Northwest 147 169 2,900 -381 Descending Boston Center
Wed 10:13:38 AM 42.6297 -73.8003 North 121 139 2,400 -516 Descending Boston Center
Wed 10:14:40 AM 42.6653 -73.8011 359° North 124 143 1,800 -639 Descending Boston Center
Wed 10:15:40 AM 42.7006 -73.8075 352° North 121 139 1,100 -645 Descending Boston Center
Wed 10:16:41 AM 42.7319 -73.8081 359° North 112 129 500 -590 Descending Boston Center
Wed 10:18:00 AM 42.7491 -73.8020 15° North  Level Estimated
Wed 10:25:00 AM 42.7491 -73.8020 304° West  Level Estimated
Wed 10:26:00 AM 42.7491 -73.8020 304° West  Level Estimated
Wed 10:27:00 AM 42.7491 -73.8020 304° West  Level Estimated

Login

Don't have an account? Register now (free) for customized features, flight alerts, and more!